Time;durP1;ratioP1;P1;durP2;ratioP2;P2;SDS_P1;SDS_P2;PMS_P1;PMS_P2;Temp;Humidity;BMP_temperature;BMP_pressure;BME280_temperature;BME280_humidity;BME280_pressure;Samples;Min_cycle;Max_cycle;Signal;HPM_P1;HPM_P2
2023/07/08 00:00:54;;;;;;;21.30;15.77;;;;;;;-143.21;80.21;71889.75;5113873;28;20219;-77
2023/07/08 00:03:22;;;;;;;25.05;17.30;;;;;;;-143.21;80.38;71893.72;5113284;28;20199;-77
2023/07/08 00:05:53;;;;;;;21.88;16.40;;;;;;;-143.21;80.50;71895.69;5113042;28;20196;-77
2023/07/08 00:08:21;;;;;;;23.35;16.90;;;;;;;-143.21;80.74;71899.66;5113605;28;20705;-77
2023/07/08 00:10:49;;;;;;;21.08;16.67;;;;;;;-143.21;80.52;71887.78;5113501;28;20269;-77
2023/07/08 00:13:18;;;;;;;26.23;16.92;;;;;;;-143.21;80.31;71877.84;5113083;28;20203;-78
2023/07/08 00:15:45;;;;;;;22.92;17.85;;;;;;;-143.21;80.47;71871.91;5113405;28;20199;-77
2023/07/08 00:18:16;;;;;;;23.20;16.95;;;;;;;-143.21;80.63;71867.94;5113100;28;20224;-77
2023/07/08 00:20:46;;;;;;;21.27;16.90;;;;;;;-143.21;80.73;71869.91;5113472;28;20212;-77
2023/07/08 00:23:13;;;;;;;21.45;17.13;;;;;;;-143.21;81.19;71891.72;5113932;28;20199;-78
2023/07/08 00:25:40;;;;;;;22.88;16.77;;;;;;;-143.21;81.62;71899.66;5113475;28;20261;-78
2023/07/08 00:28:13;;;;;;;23.92;17.77;;;;;;;-143.21;82.47;71917.50;5112877;28;20195;-76
2023/07/08 00:30:39;;;;;;;24.13;17.55;;;;;;;-143.21;83.07;71929.41;5113209;28;20492;-76
2023/07/08 00:33:08;;;;;;;23.95;18.02;;;;;;;-143.21;83.05;71933.38;5112683;28;20193;-77
2023/07/08 00:35:37;;;;;;;23.77;17.92;;;;;;;-143.21;83.07;71931.38;5111953;28;20236;-77
2023/07/08 00:38:15;;;;;;;22.52;18.63;;;;;;;-143.21;82.68;71925.44;5112981;28;20224;-77
2023/07/08 00:40:50;;;;;;;25.77;18.13;;;;;;;-143.21;82.35;71923.47;5113291;28;20215;-78
2023/07/08 00:43:23;;;;;;;24.52;17.25;;;;;;;-143.21;81.54;71899.66;5112459;28;20180;-77
2023/07/08 00:45:52;;;;;;;29.48;16.98;;;;;;;-143.21;80.79;71879.84;5112566;28;20203;-77
2023/07/08 00:48:24;;;;;;;23.38;16.55;;;;;;;-143.21;80.02;71856.03;5112340;28;20203;-78
2023/07/08 00:50:52;;;;;;;22.65;17.02;;;;;;;-143.21;79.95;71862.00;5112506;28;20298;-78
2023/07/08 00:53:27;;;;;;;23.92;17.13;;;;;;;-143.21;80.03;71856.03;5112587;28;20195;-77
2023/07/08 00:55:57;;;;;;;24.13;16.75;;;;;;;-143.21;80.31;71860.00;5112445;28;20192;-77
2023/07/08 00:58:27;;;;;;;19.55;15.80;;;;;;;-143.21;80.08;71850.09;5112581;28;20240;-77
2023/07/08 01:00:56;;;;;;;19.30;16.30;;;;;;;-143.21;80.10;71856.03;5112620;28;20185;-77
2023/07/08 01:03:27;;;;;;;21.77;16.63;;;;;;;-143.21;80.31;71858.03;5112905;28;20192;-77
2023/07/08 01:05:59;;;;;;;20.33;16.02;;;;;;;-143.21;80.67;71871.91;5112964;28;20187;-77
2023/07/08 01:08:28;;;;;;;20.10;16.75;;;;;;;-143.21;80.73;71862.00;5112513;28;20180;-78
2023/07/08 01:11:01;;;;;;;21.70;15.95;;;;;;;-143.21;81.29;71873.88;5112318;28;20191;-78
2023/07/08 01:13:35;;;;;;;20.83;15.98;;;;;;;-143.21;81.27;71879.84;5112524;28;20264;-77
2023/07/08 01:16:02;;;;;;;21.55;16.00;;;;;;;-143.21;81.51;71887.78;5112199;28;20241;-77
2023/07/08 01:18:29;;;;;;;22.58;15.38;;;;;;;-143.21;81.65;71889.75;5112222;28;20227;-77
2023/07/08 01:20:56;;;;;;;21.20;15.30;;;;;;;-143.21;81.71;71885.78;5111877;28;20219;-77
2023/07/08 01:23:25;;;;;;;22.40;16.35;;;;;;;-143.21;81.52;71877.84;5117647;27;20650;-78
2023/07/08 01:25:52;;;;;;;18.90;15.73;;;;;;;-143.21;81.29;71873.88;5132874;27;20256;-78
2023/07/08 01:28:20;;;;;;;20.58;14.98;;;;;;;-143.21;80.87;71869.91;5132613;27;20196;-78
2023/07/08 01:30:49;;;;;;;19.77;16.42;;;;;;;-143.21;80.68;71875.88;5132576;27;20199;-77
2023/07/08 01:33:21;;;;;;;23.57;15.77;;;;;;;-143.21;80.66;71873.88;5132853;27;20203;-77
2023/07/08 01:35:49;;;;;;;21.35;15.80;;;;;;;-143.21;80.66;71875.88;5132319;27;20230;-77
2023/07/08 01:38:19;;;;;;;19.15;15.45;;;;;;;-143.21;80.50;71873.88;5132659;27;20306;-77
2023/07/08 01:40:53;;;;;;;20.10;15.38;;;;;;;-143.21;80.37;71879.84;5112483;28;20842;-77
2023/07/08 01:43:20;;;;;;;19.80;15.90;;;;;;;-143.21;81.18;71891.72;5111491;28;20184;-76
2023/07/08 01:45:49;;;;;;;20.42;15.82;;;;;;;-143.21;81.23;71895.69;5111550;28;20642;-77
2023/07/08 01:48:18;;;;;;;20.35;16.17;;;;;;;-143.21;81.29;71889.75;5111566;28;20192;-76
2023/07/08 01:50:49;;;;;;;19.65;15.40;;;;;;;-143.21;81.50;71903.63;5111371;28;20632;-77
2023/07/08 01:53:19;;;;;;;19.02;15.98;;;;;;;-143.21;81.47;71899.66;5111841;28;20173;-77
2023/07/08 01:55:46;;;;;;;17.45;15.18;;;;;;;-143.21;81.21;71891.72;5111935;28;20192;-78
2023/07/08 01:58:14;;;;;;;17.40;15.50;;;;;;;-143.21;81.08;71885.78;5111089;28;20216;-79
2023/07/08 02:00:43;;;;;;;23.58;15.07;;;;;;;-143.21;81.42;71893.72;5111108;28;20199;-79
2023/07/08 02:03:10;;;;;;;20.17;15.35;;;;;;;-143.21;81.40;71895.69;5111554;28;20619;-79
2023/07/08 02:05:37;;;;;;;27.90;14.32;;;;;;;-143.21;81.30;71895.69;5111331;28;20224;-78
2023/07/08 02:08:04;;;;;;;18.50;15.15;;;;;;;-143.21;81.29;71895.69;5111710;28;20196;-78
2023/07/08 02:10:29;;;;;;;19.75;14.10;;;;;;;-143.21;81.55;71903.63;5111332;28;20207;-78
2023/07/08 02:12:56;;;;;;;20.92;14.55;;;;;;;-143.21;81.39;71905.63;5111602;28;20200;-78
2023/07/08 02:15:24;;;;;;;20.02;14.27;;;;;;;-143.21;81.42;71915.53;5111303;28;20199;-78
2023/07/08 02:17:51;;;;;;;20.75;14.13;;;;;;;-143.21;81.71;71919.50;5111071;28;20200;-78
2023/07/08 02:20:18;;;;;;;19.83;14.63;;;;;;;-143.21;82.00;71925.44;5111058;28;20196;-79
2023/07/08 02:22:45;;;;;;;18.52;14.88;;;;;;;-143.21;81.95;71923.47;5111287;28;20200;-78
2023/07/08 02:25:11;;;;;;;19.10;14.15;;;;;;;-143.21;82.05;71927.44;5111828;28;20196;-78
2023/07/08 02:27:39;;;;;;;19.48;15.15;;;;;;;-143.21;81.50;71923.47;5111222;28;20192;-78
2023/07/08 02:30:07;;;;;;;19.05;14.20;;;;;;;-143.21;81.75;71923.47;5111506;28;20219;-78
2023/07/08 02:32:38;;;;;;;19.65;13.88;;;;;;;-143.21;81.71;71927.44;5111335;28;20192;-78
2023/07/08 02:35:05;;;;;;;17.38;13.85;;;;;;;-143.21;81.86;71927.44;5111293;28;20267;-78
2023/07/08 02:37:33;;;;;;;20.92;15.13;;;;;;;-143.21;81.52;71927.44;5110740;28;20272;-78
2023/07/08 02:40:00;;;;;;;20.70;13.45;;;;;;;-143.21;81.61;71925.44;5111275;28;20223;-78
2023/07/08 02:42:26;;;;;;;19.85;14.50;;;;;;;-143.21;81.56;71927.44;5111021;28;20196;-78
2023/07/08 02:44:53;;;;;;;20.90;13.70;;;;;;;-143.21;81.73;71933.38;5111464;28;20192;-77
2023/07/08 02:47:20;;;;;;;18.92;13.95;;;;;;;-143.21;81.56;71931.38;5111114;28;20233;-76
2023/07/08 02:49:48;;;;;;;18.58;14.07;;;;;;;-143.21;81.43;71929.41;5110691;28;20207;-77
2023/07/08 02:52:15;;;;;;;17.95;13.95;;;;;;;-143.21;81.35;71939.31;5111347;28;20204;-77
2023/07/08 02:54:42;;;;;;;17.95;13.60;;;;;;;-143.21;81.18;71939.31;5111187;28;20184;-77
2023/07/08 02:57:08;;;;;;;18.45;14.52;;;;;;;-143.21;81.09;71935.34;5111137;28;20207;-77
2023/07/08 02:59:35;;;;;;;18.70;14.23;;;;;;;-143.21;81.01;71939.31;5111235;28;20632;-77
2023/07/08 03:02:02;;;;;;;19.27;14.50;;;;;;;-143.21;81.02;71935.34;5111212;28;20196;-77
2023/07/08 03:04:30;;;;;;;17.73;14.25;;;;;;;-143.21;81.32;71941.31;5110676;28;20199;-77
2023/07/08 03:06:58;;;;;;;19.90;14.70;;;;;;;-143.21;81.29;71937.34;5110399;28;20241;-78
2023/07/08 03:09:26;;;;;;;17.17;14.32;;;;;;;-143.21;81.13;71941.31;5111051;28;20204;-76
2023/07/08 03:11:53;;;;;;;19.73;14.43;;;;;;;-143.21;81.04;71935.34;5114346;28;20286;-76
2023/07/08 03:14:19;;;;;;;16.00;14.25;;;;;;;-143.21;80.84;71935.34;5114767;28;20193;-77
2023/07/08 03:16:46;;;;;;;19.38;14.68;;;;;;;-143.21;80.89;71939.31;5114390;28;20546;-76
2023/07/08 03:19:14;;;;;;;15.77;13.77;;;;;;;-143.21;80.77;71933.38;5114653;28;20216;-76
2023/07/08 03:21:41;;;;;;;15.98;13.10;;;;;;;-143.21;80.77;71929.41;5114185;28;20196;-77
2023/07/08 03:24:11;;;;;;;19.10;13.57;;;;;;;-143.21;81.14;71935.34;5114727;28;20199;-76
2023/07/08 03:26:39;;;;;;;16.63;13.48;;;;;;;-143.21;81.05;71939.31;5114288;28;20227;-77
2023/07/08 03:29:07;;;;;;;16.77;13.18;;;;;;;-143.21;80.94;71933.38;5114765;28;20254;-77
2023/07/08 03:31:33;;;;;;;19.38;14.10;;;;;;;-143.21;80.98;71933.38;5114412;28;20192;-78
2023/07/08 03:34:00;;;;;;;20.95;13.52;;;;;;;-143.21;81.20;71929.41;5114655;28;20211;-77
2023/07/08 03:36:27;;;;;;;14.10;12.57;;;;;;;-143.21;81.08;71937.34;5114459;28;20220;-78
2023/07/08 03:38:56;;;;;;;17.80;12.90;;;;;;;-143.21;81.13;71929.41;5114017;28;20235;-77
2023/07/08 03:41:24;;;;;;;15.90;13.18;;;;;;;-143.21;81.47;71939.31;5114647;28;20260;-77
2023/07/08 03:43:51;;;;;;;18.33;12.55;;;;;;;-143.21;81.43;71939.31;5114257;28;20207;-77
2023/07/08 03:46:22;;;;;;;15.07;11.65;;;;;;;-143.21;81.45;71923.47;5114238;28;20188;-77
2023/07/08 03:48:49;;;;;;;18.65;12.93;;;;;;;-143.21;82.50;71949.25;5114250;28;20211;-77
2023/07/08 03:51:24;;;;;;;14.95;11.00;;;;;;;-143.21;83.26;71965.09;5114032;28;20559;-77
2023/07/08 03:53:52;;;;;;;13.13;11.20;;;;;;;-143.21;83.38;71965.09;5114009;28;20195;-77
2023/07/08 03:56:19;;;;;;;16.67;10.82;;;;;;;-143.21;83.66;71971.06;5114131;28;20235;-77
2023/07/08 03:58:47;;;;;;;15.40;11.70;;;;;;;-143.21;83.80;71971.06;5113788;28;20670;-77
2023/07/08 04:01:16;;;;;;;16.90;10.73;;;;;;;-143.21;84.17;71967.09;5114306;28;20199;-77
2023/07/08 04:03:43;;;;;;;16.07;11.00;;;;;;;-143.21;84.10;71965.09;5113462;28;20560;-78
2023/07/08 04:06:10;;;;;;;16.13;11.30;;;;;;;-143.21;84.31;71967.09;5113968;28;20180;-77
2023/07/08 04:08:37;;;;;;;18.97;10.67;;;;;;;-143.21;84.39;71975.00;5113830;28;20192;-77
2023/07/08 04:11:04;;;;;;;17.17;10.97;;;;;;;-143.21;84.39;71971.06;5113730;28;20245;-77
2023/07/08 04:13:32;;;;;;;12.80;10.40;;;;;;;-143.21;84.25;71971.06;5113621;28;20196;-77
2023/07/08 04:16:03;;;;;;;15.33;11.07;;;;;;;-143.21;84.20;71971.06;5113642;28;20203;-78
2023/07/08 04:18:29;;;;;;;14.38;10.50;;;;;;;-143.21;84.29;71977.00;5113833;28;20249;-78
2023/07/08 04:20:56;;;;;;;13.65;10.80;;;;;;;-143.21;84.44;71984.94;5113200;28;20642;-78
2023/07/08 04:23:24;;;;;;;13.27;10.60;;;;;;;-143.21;84.30;71975.00;5112188;28;20204;-78
2023/07/08 04:25:54;;;;;;;16.03;10.70;;;;;;;-143.21;84.07;71967.09;5112783;28;20205;-78
2023/07/08 04:28:21;;;;;;;14.68;10.60;;;;;;;-143.21;84.23;71967.09;5113531;28;20192;-78
2023/07/08 04:30:49;;;;;;;12.43;10.40;;;;;;;-143.21;83.21;71957.16;5113013;28;20195;-78
2023/07/08 04:33:18;;;;;;;16.37;10.57;;;;;;;-143.21;82.71;71947.25;5113511;28;20196;-78
2023/07/08 04:35:46;;;;;;;14.23;11.03;;;;;;;-143.21;82.82;71955.19;5112984;28;20231;-78
2023/07/08 04:38:17;;;;;;;16.83;11.57;;;;;;;-143.21;83.10;71959.16;5113540;28;20200;-78
2023/07/08 04:40:44;;;;;;;13.50;11.23;;;;;;;-143.21;82.87;71957.16;5113484;28;20212;-78
2023/07/08 04:43:11;;;;;;;12.83;10.63;;;;;;;-143.21;83.36;71965.09;5113392;28;20196;-77
2023/07/08 04:45:39;;;;;;;12.87;11.07;;;;;;;-143.21;83.53;71951.22;5113111;28;20253;-77
2023/07/08 04:48:12;;;;;;;15.27;11.10;;;;;;;-143.21;83.49;71947.25;5113002;28;20543;-77
2023/07/08 04:50:42;;;;;;;12.73;10.63;;;;;;;-143.21;83.62;71951.22;5113253;28;20212;-77
2023/07/08 04:53:09;;;;;;;13.00;10.83;;;;;;;-143.21;84.09;71961.13;5112677;28;20243;-78
2023/07/08 04:55:36;;;;;;;14.00;11.27;;;;;;;-143.21;83.83;71955.19;5112338;28;20663;-77
2023/07/08 04:58:03;;;;;;;17.10;11.17;;;;;;;-143.21;83.54;71955.19;5112506;28;20192;-77
2023/07/08 05:00:32;;;;;;;13.37;11.13;;;;;;;-143.21;83.60;71949.25;5112629;28;20227;-77
2023/07/08 05:02:59;;;;;;;16.60;12.13;;;;;;;-143.21;83.70;71949.25;5112382;28;20192;-77
2023/07/08 05:05:26;;;;;;;17.07;11.27;;;;;;;-143.21;83.08;71957.16;5112669;28;20192;-77
2023/07/08 05:07:54;;;;;;;14.27;11.07;;;;;;;-143.21;83.04;71953.19;5112487;28;20200;-78
2023/07/08 05:10:22;;;;;;;16.80;11.60;;;;;;;-143.21;83.15;71951.22;5112779;28;20200;-77
2023/07/08 05:12:49;;;;;;;14.13;11.33;;;;;;;-143.21;83.28;71961.13;5112089;28;20207;-77
2023/07/08 05:15:16;;;;;;;15.10;11.48;;;;;;;-143.21;83.70;71955.19;5112699;27;20215;-77
2023/07/08 05:17:44;;;;;;;14.57;11.15;;;;;;;-143.21;83.10;71931.38;5112112;28;20200;-77
2023/07/08 05:20:13;;;;;;;12.38;10.35;;;;;;;-143.21;82.24;71927.44;5111992;28;20831;-77
2023/07/08 05:22:41;;;;;;;14.20;11.20;;;;;;;-143.21;82.06;71927.44;5112575;28;20203;-79
2023/07/08 05:25:10;;;;;;;12.13;10.20;;;;;;;-143.21;81.73;71917.50;5112171;28;20227;-76
2023/07/08 05:27:37;;;;;;;16.50;10.50;;;;;;;-143.21;81.05;71915.53;5111942;28;20860;-77
2023/07/08 05:32:57;;;;;;;17.38;10.60;;;;;;;-143.21;80.65;71901.66;5111724;28;20257;-78
2023/07/08 05:35:24;;;;;;;13.18;9.88;;;;;;;-143.21;80.50;71907.59;5111893;28;20566;-78
2023/07/08 05:37:51;;;;;;;13.60;10.13;;;;;;;-143.21;80.47;71899.66;5117898;27;20299;-77
2023/07/08 05:40:19;;;;;;;12.75;9.75;;;;;;;-143.21;78.61;71881.81;5113975;27;20708;-76
2023/07/08 05:42:46;;;;;;;14.85;10.43;;;;;;;-143.21;79.34;71885.78;5109112;28;20207;-77
2023/07/08 05:45:13;;;;;;;11.43;10.23;;;;;;;-143.21;79.52;71881.81;5109414;28;20249;-77
2023/07/08 05:47:39;;;;;;;12.98;10.02;;;;;;;-143.21;79.34;71873.88;5109463;28;20198;-78
2023/07/08 05:50:07;;;;;;;14.75;10.45;;;;;;;-143.21;78.63;71862.00;5109358;28;20196;-77
2023/07/08 05:52:34;;;;;;;13.63;9.77;;;;;;;-143.21;78.01;71863.97;5109686;28;20256;-78
2023/07/08 05:55:01;;;;;;;12.32;10.20;;;;;;;-143.21;77.85;71860.00;5108328;28;20202;-77
2023/07/08 05:57:30;;;;;;;14.68;10.27;;;;;;;-143.21;76.98;71844.16;5109584;28;20188;-78
2023/07/08 05:59:56;;;;;;;14.50;9.88;;;;;;;-143.21;77.04;71846.13;5109448;28;20220;-78
2023/07/08 06:02:25;;;;;;;15.75;10.55;;;;;;;-143.21;77.08;71852.06;5109411;28;20207;-78
2023/07/08 06:04:52;;;;;;;12.15;10.20;;;;;;;-143.21;76.75;71846.13;5109213;28;20739;-77
2023/07/08 06:07:19;;;;;;;16.85;11.07;;;;;;;-143.21;76.00;71846.13;5109208;28;20187;-77
2023/07/08 06:09:46;;;;;;;13.93;11.02;;;;;;;-143.21;76.45;71850.09;5109157;28;20211;-77
2023/07/08 06:12:13;;;;;;;17.08;10.25;;;;;;;-143.21;76.08;71850.09;5109924;28;20198;-77
2023/07/08 06:14:41;;;;;;;12.38;10.32;;;;;;;-143.21;75.78;71858.03;5109061;28;20204;-78
2023/07/08 06:17:08;;;;;;;13.20;9.70;;;;;;;-143.21;75.47;71860.00;5109491;28;20195;-77
2023/07/08 06:19:35;;;;;;;15.80;10.50;;;;;;;-143.21;75.62;71865.97;5109173;28;20276;-78
2023/07/08 06:22:02;;;;;;;12.73;9.68;;;;;;;-143.21;75.87;71860.00;5109180;28;20200;-78
2023/07/08 06:24:29;;;;;;;15.02;9.85;;;;;;;-143.21;74.72;71854.06;5109127;28;20191;-78
2023/07/08 06:26:56;;;;;;;12.00;9.70;;;;;;;-143.21;74.88;71846.13;5109824;28;20207;-79
2023/07/08 06:29:22;;;;;;;15.10;9.57;;;;;;;-143.21;74.58;71832.25;5110247;28;20194;-79
2023/07/08 06:31:51;;;;;;;14.18;9.27;;;;;;;-143.21;73.17;71834.22;5109591;28;20203;-78
2023/07/08 06:34:18;;;;;;;14.55;9.07;;;;;;;-143.21;73.24;71840.19;5109191;28;20199;-77
2023/07/08 06:36:45;;;;;;;10.98;8.00;;;;;;;-143.21;72.98;71834.22;5108905;28;20231;-77
2023/07/08 06:39:14;;;;;;;12.35;8.27;;;;;;;-143.21;72.93;71836.22;5108737;28;20204;-77
2023/07/08 06:41:41;;;;;;;12.73;8.40;;;;;;;-143.21;73.43;71814.41;5108279;28;20256;-77
2023/07/08 06:44:10;;;;;;;12.13;8.45;;;;;;;-143.21;72.86;71796.56;5108210;28;20196;-77
2023/07/08 06:46:38;;;;;;;11.10;7.95;;;;;;;-143.21;73.12;71772.75;5112064;28;20199;-77
2023/07/08 06:49:08;;;;;;;11.05;8.13;;;;;;;-143.21;71.40;71756.91;5112308;28;20204;-78
2023/07/08 06:51:35;;;;;;;14.23;8.73;;;;;;;-143.21;70.79;71756.91;5112305;28;20253;-77
2023/07/08 06:54:04;;;;;;;14.10;7.85;;;;;;;-143.21;71.39;71741.03;5112452;28;20619;-77
2023/07/08 06:56:31;;;;;;;12.85;8.52;;;;;;;-143.21;68.95;71727.16;5110744;28;20246;-78
2023/07/08 06:59:00;;;;;;;10.85;8.27;;;;;;;-143.21;69.29;71735.09;5111530;28;20768;-77
2023/07/08 07:01:27;;;;;;;12.65;7.70;;;;;;;-143.21;69.35;71717.25;5111374;28;20234;-76
2023/07/08 07:03:54;;;;;;;11.85;8.15;;;;;;;-143.21;68.17;71709.31;5111846;28;20195;-76
2023/07/08 07:06:22;;;;;;;11.00;7.90;;;;;;;-143.21;68.11;71675.59;5112450;28;20285;-77
2023/07/08 07:08:49;;;;;;;10.40;8.13;;;;;;;-143.21;65.93;71673.63;5111758;28;20200;-77
2023/07/08 07:11:16;;;;;;;14.93;8.30;;;;;;;-143.21;66.05;71659.75;5111866;28;20654;-78
2023/07/08 07:13:43;;;;;;;10.52;8.15;;;;;;;-143.21;66.41;71649.81;5111705;28;20645;-77
2023/07/08 07:16:10;;;;;;;9.73;8.05;;;;;;;-143.21;65.76;71639.91;5112170;28;20768;-77
2023/07/08 07:18:38;;;;;;;13.20;7.93;;;;;;;-143.21;68.22;71645.88;5111898;28;20865;-77
2023/07/08 07:21:04;;;;;;;11.23;7.88;;;;;;;-143.21;65.85;71639.91;5111859;28;20714;-77
2023/07/08 07:23:33;;;;;;;15.27;8.88;;;;;;;-143.21;66.19;71659.75;5111768;28;20203;-77
2023/07/08 07:25:59;;;;;;;10.18;9.00;;;;;;;-143.21;66.30;71661.72;5111411;28;20204;-77
2023/07/08 07:28:26;;;;;;;9.48;8.20;;;;;;;-143.21;66.60;71645.88;5111585;28;20200;-77
2023/07/08 07:30:57;;;;;;;15.52;8.80;;;;;;;-143.21;65.46;71647.84;5111814;28;20195;-77
2023/07/08 07:33:26;;;;;;;12.25;8.50;;;;;;;-143.21;66.33;71633.97;5112099;28;20184;-78
2023/07/08 07:35:54;;;;;;;9.40;8.23;;;;;;;-143.21;65.83;71606.22;5111629;28;20216;-78
2023/07/08 07:38:20;;;;;;;10.73;8.15;;;;;;;-143.21;64.04;71602.25;5111526;28;20184;-78
2023/07/08 07:40:49;;;;;;;12.60;8.80;;;;;;;-143.21;65.06;71604.22;5111291;28;20231;-78
2023/07/08 07:43:15;;;;;;;10.90;7.97;;;;;;;-143.21;64.09;71594.31;5111720;28;20200;-78
2023/07/08 07:45:42;;;;;;;10.93;7.70;;;;;;;-143.21;62.94;71584.41;5111141;28;20192;-78
2023/07/08 07:48:09;;;;;;;10.43;8.32;;;;;;;-143.21;63.30;71580.44;5110947;28;20200;-78
2023/07/08 07:50:36;;;;;;;8.38;7.35;;;;;;;-143.21;64.00;71564.56;5111710;27;20728;-78
2023/07/08 07:53:03;;;;;;;15.15;8.15;;;;;;;-143.21;62.87;71560.59;5111658;28;20196;-79
2023/07/08 07:55:29;;;;;;;13.13;8.25;;;;;;;-143.21;61.89;71530.88;5110506;28;20688;-78
2023/07/08 07:57:58;;;;;;;11.75;7.70;;;;;;;-143.21;62.15;71550.69;5111839;28;20219;-77
2023/07/08 08:00:24;;;;;;;14.35;9.10;;;;;;;-143.21;62.96;71544.75;5112149;28;20234;-76
2023/07/08 08:02:51;;;;;;;12.15;8.73;;;;;;;-143.21;62.36;71548.72;5112507;28;20192;-78
2023/07/08 08:05:19;;;;;;;11.00;8.20;;;;;;;-143.21;63.70;71544.75;5112011;28;20199;-77
2023/07/08 08:07:47;;;;;;;10.85;8.05;;;;;;;-143.21;63.12;71532.84;5112027;28;20207;-78
2023/07/08 08:10:14;;;;;;;9.98;7.72;;;;;;;-143.21;61.28;71499.13;5111602;28;20207;-78
2023/07/08 08:12:42;;;;;;;14.07;8.02;;;;;;;-143.21;61.11;71481.28;5111308;28;20196;-78
2023/07/08 08:15:11;;;;;;;10.27;8.15;;;;;;;-143.21;60.30;71469.41;5111034;28;20303;-78
2023/07/08 08:17:38;;;;;;;9.80;8.38;;;;;;;-143.21;60.49;71463.44;5110472;28;20196;-77
2023/07/08 08:20:06;;;;;;;15.43;8.50;;;;;;;-143.21;60.31;71453.53;5110357;28;20196;-77
2023/07/08 08:22:32;;;;;;;10.13;8.05;;;;;;;-143.21;60.46;71463.44;5110971;28;20192;-78
2023/07/08 08:24:59;;;;;;;13.07;8.27;;;;;;;-143.21;61.23;71471.38;5110809;28;20200;-78
2023/07/08 08:27:26;;;;;;;9.70;7.97;;;;;;;-143.21;60.76;71459.47;5110620;28;20211;-79
2023/07/08 08:29:53;;;;;;;11.00;7.93;;;;;;;-143.21;60.24;71447.59;5110707;27;20218;-79
2023/07/08 08:32:21;;;;;;;9.88;8.60;;;;;;;-143.21;60.12;71445.59;5110801;28;20210;-78
2023/07/08 08:34:48;;;;;;;13.55;10.50;;;;;;;-143.21;59.23;71441.63;5110800;28;20585;-78
2023/07/08 08:37:15;;;;;;;11.05;9.90;;;;;;;-143.21;59.45;71423.78;5110517;28;20227;-78
2023/07/08 08:39:42;;;;;;;9.35;7.95;;;;;;;-143.21;59.77;71439.66;5110473;28;20200;-78
2023/07/08 08:42:24;;;;;;;13.07;8.05;;;;;;;-143.21;59.45;71435.69;5111125;28;20219;-78
2023/07/08 08:44:51;;;;;;;10.43;7.82;;;;;;;-143.21;59.42;71435.69;5110869;28;20191;-78
2023/07/08 08:47:34;;;;;;;9.77;7.93;;;;;;;-143.21;60.17;71439.66;5110433;28;20196;-79
2023/07/08 08:50:04;;;;;;;9.55;8.50;;;;;;;-143.21;59.18;71419.84;5110739;28;20188;-78
2023/07/08 08:52:31;;;;;;;9.82;8.05;;;;;;;-143.21;59.58;71390.09;5111312;28;20223;-78
2023/07/08 08:54:58;;;;;;;10.50;7.95;;;;;;;-143.21;57.92;71386.13;5110426;28;20199;-78
2023/07/08 08:57:37;;;;;;;10.02;8.18;;;;;;;-143.21;58.58;71409.91;5109985;28;20192;-79
2023/07/08 09:00:04;;;;;;;11.02;7.68;;;;;;;-143.21;58.74;71409.91;5110452;28;20537;-77
2023/07/08 09:02:37;;;;;;;9.85;8.00;;;;;;;-143.21;57.95;71419.84;5110424;28;20192;-77
2023/07/08 09:05:07;;;;;;;11.32;7.50;;;;;;;-143.21;58.00;71435.69;5110597;28;20207;-78
2023/07/08 09:07:42;;;;;;;8.77;7.68;;;;;;;-143.21;58.65;71437.69;5109686;28;20673;-77
2023/07/08 09:10:16;;;;;;;10.90;7.55;;;;;;;-143.21;58.82;71421.81;5110598;28;20191;-79
2023/07/08 09:12:45;;;;;;;11.85;7.60;;;;;;;-143.21;58.81;71403.97;5110574;28;20192;-77
2023/07/08 09:15:14;;;;;;;8.02;7.22;;;;;;;-143.21;58.62;71372.25;5109964;28;20658;-78
2023/07/08 09:17:42;;;;;;;8.43;7.55;;;;;;;-143.21;57.55;71352.44;5110070;28;20275;-78
2023/07/08 09:20:21;;;;;;;12.07;7.38;;;;;;;-143.21;57.26;71338.53;5110157;28;20215;-78
2023/07/08 09:22:54;;;;;;;10.18;7.63;;;;;;;-143.21;56.83;71330.63;5109933;28;20235;-76
2023/07/08 09:25:28;;;;;;;10.23;7.38;;;;;;;-143.21;57.64;71304.84;5109775;28;20269;-77
2023/07/08 09:27:55;;;;;;;11.70;7.18;;;;;;;-143.21;55.61;71306.81;5110318;28;20196;-79
2023/07/08 09:30:24;;;;;;;11.15;7.47;;;;;;;-143.21;56.58;71300.88;5109894;28;20554;-76
2023/07/08 09:32:53;;;;;;;11.38;6.72;;;;;;;-143.21;56.61;71271.13;5109541;28;20196;-78
2023/07/08 09:35:23;;;;;;;10.82;7.35;;;;;;;-143.21;56.04;71265.19;5109174;28;20195;-77
2023/07/08 09:37:50;;;;;;;9.85;7.32;;;;;;;-143.21;55.09;71265.19;5109028;28;20192;-78
2023/07/08 09:40:20;;;;;;;9.02;6.70;;;;;;;-143.21;55.38;71275.09;5124698;27;20218;-77
2023/07/08 09:42:51;;;;;;;13.10;7.25;;;;;;;-143.21;56.70;71288.97;5129782;27;20187;-79
2023/07/08 09:45:21;;;;;;;10.10;7.07;;;;;;;-143.21;56.42;71292.94;5130379;27;20191;-80
2023/07/08 09:47:53;;;;;;;14.88;7.22;;;;;;;-143.21;56.24;71265.19;5131617;27;20664;-78
2023/07/08 09:50:24;;;;;;;7.35;6.60;;;;;;;-143.21;56.18;71253.28;5129771;27;20566;-77
2023/07/08 09:52:53;;;;;;;9.40;6.00;;;;;;;-143.21;55.00;71253.28;5130158;27;20195;-77
2023/07/08 09:55:20;;;;;;;8.73;6.72;;;;;;;-143.21;55.88;71259.25;5128620;27;20187;-78
2023/07/08 09:57:50;;;;;;;8.05;7.15;;;;;;;-143.21;56.60;71253.28;5129973;27;20207;-78
2023/07/08 10:00:26;;;;;;;8.05;6.28;;;;;;;-143.21;55.64;71261.22;5129845;27;20302;-84
2023/07/08 10:02:56;;;;;;;8.73;7.07;;;;;;;-143.21;55.29;71269.16;5130679;27;20223;-77
2023/07/08 10:05:28;;;;;;;11.48;7.68;;;;;;;-143.21;55.83;71257.25;5130152;27;20195;-77
2023/07/08 10:07:58;;;;;;;14.68;7.25;;;;;;;-143.21;55.40;71235.44;5114359;27;20200;-79
2023/07/08 10:10:29;;;;;;;10.40;6.50;;;;;;;-143.21;54.17;71213.66;5109525;28;20210;-77
2023/07/08 10:13:00;;;;;;;12.57;7.10;;;;;;;-143.21;54.48;71215.63;5109593;28;20188;-75
2023/07/08 10:15:34;;;;;;;10.13;6.53;;;;;;;-143.21;52.88;71205.72;5109300;28;20682;-76
2023/07/08 10:18:02;;;;;;;7.82;6.53;;;;;;;-143.21;54.43;71233.47;5109255;28;20168;-76
2023/07/08 10:20:43;;;;;;;8.73;6.38;;;;;;;-143.21;54.45;71229.50;5112280;27;20696;-76
2023/07/08 10:23:21;;;;;;;8.27;6.18;;;;;;;-143.21;53.95;71221.56;5115727;28;20208;-76
2023/07/08 10:25:55;;;;;;;11.32;6.13;;;;;;;-143.21;53.56;71191.84;5115135;28;20199;-76
2023/07/08 10:28:37;;;;;;;10.68;6.07;;;;;;;-143.21;53.66;71175.97;5115783;28;20275;-76
2023/07/08 10:31:17;;;;;;;6.32;5.65;;;;;;;-143.21;52.42;71156.16;5115601;28;20207;-77
2023/07/08 10:34:03;;;;;;;7.07;5.22;;;;;;;-143.21;53.11;71150.22;5115502;28;20188;-77
2023/07/08 10:36:43;;;;;;;8.23;5.95;;;;;;;-143.21;53.35;71146.25;5115373;28;20212;-77
2023/07/08 10:39:45;;;;;;;8.23;5.70;;;;;;;-143.21;51.94;71120.47;5115873;28;20195;-77
2023/07/08 10:42:25;;;;;;;7.15;5.45;;;;;;;-143.21;51.76;71122.44;5115600;27;20207;-77
2023/07/08 10:45:00;;;;;;;6.03;5.43;;;;;;;-143.21;51.17;71120.47;5115085;28;20219;-77
2023/07/08 10:47:42;;;;;;;6.32;5.18;;;;;;;-143.21;51.18;71126.41;5115367;28;20203;-77
2023/07/08 10:50:27;;;;;;;7.35;5.72;;;;;;;-143.21;52.18;71102.63;5115348;28;20247;-77
2023/07/08 10:53:08;;;;;;;10.10;6.05;;;;;;;-143.21;51.97;71070.91;5115113;28;20188;-77
2023/07/08 10:55:48;;;;;;;7.57;6.00;;;;;;;-143.21;50.72;71059.00;5114812;28;20179;-77
2023/07/08 10:58:41;;;;;;;6.30;5.65;;;;;;;-143.21;50.86;71041.16;5115204;27;20260;-77
2023/07/08 11:01:19;;;;;;;8.18;6.38;;;;;;;-143.21;50.86;71009.44;5102115;28;20219;-77
2023/07/08 11:04:08;;;;;;;7.30;5.40;;;;;;;-143.21;48.94;71027.28;5118867;27;20195;-77
2023/07/08 11:06:45;;;;;;;6.10;5.40;;;;;;;-143.21;50.51;71019.38;5119666;27;20662;-77
2023/07/08 11:09:21;;;;;;;6.13;5.50;;;;;;;-143.21;49.81;71011.44;5129101;27;20291;-77
2023/07/08 11:11:54;;;;;;;5.93;5.32;;;;;;;-143.21;50.27;71019.38;5114739;28;20184;-78
2023/07/08 11:14:26;;;;;;;6.00;5.40;;;;;;;-143.21;49.73;70991.63;5114835;28;20211;-79
2023/07/08 11:16:59;;;;;;;7.85;5.53;;;;;;;-143.21;48.63;70977.72;5115034;28;20199;-77
2023/07/08 11:19:32;;;;;;;7.65;5.22;;;;;;;-143.21;48.57;70949.97;5114885;28;20572;-78